This is the latest recevied weather packets stored in our database for station/object W7TRD. If no packets are shown the sender has not sent any weather packets the latest 10 day(s).
| Time | Temp. | Humidity | Pressure | Rain* | Wind** | Luminosity | Snow |
|---|---|---|---|---|---|---|---|
| 1777823095 | 18.89° C | 71% | 1013.2 hPa | 0 mm | - | 67 W/m² | - |
| 1777822792 | 18.33° C | 72% | 1013.3 hPa | 0 mm | - | 65 W/m² | - |
| 1777822490 | 18.33° C | 73% | 1013.4 hPa | 0 mm | - | 64 W/m² | - |
| 1777822187 | 17.78° C | 73% | 1013.2 hPa | 0 mm | - | 63 W/m² | - |
| 1777821884 | 17.22° C | 78% | 1013.3 hPa | 0 mm | - | 64 W/m² | - |
| 1777821581 | 17.78° C | 77% | 1013.1 hPa | 0 mm | - | 71 W/m² | - |
| 1777821279 | 17.78° C | 76% | 1013.3 hPa | 0 mm | - | 180 W/m² | - |
| 1777820977 | 18.33° C | 75% | 1013.5 hPa | 0 mm | - | 209 W/m² | - |
| 1777820673 | 17.78° C | 77% | 1013.3 hPa | 0 mm | - | 199 W/m² | - |
| 1777820369 | 17.78° C | 76% | 1013.3 hPa | 0 mm | - | 169 W/m² | - |
| 1777820067 | 18.33° C | 76% | 1013.4 hPa | 0 mm | - | 135 W/m² | - |
| 1777819763 | 18.33° C | 77% | 1013.4 hPa | 0 mm | - | 115 W/m² | - |
| 1777819462 | 17.78° C | 77% | 1013.4 hPa | 0 mm | - | 98 W/m² | - |
| 1777819159 | 17.78° C | 77% | 1013.2 hPa | 0 mm | - | 89 W/m² | - |
| 1777818856 | 17.78° C | 77% | 1013.3 hPa | 0 mm | - | 81 W/m² | - |
| 1777818551 | 17.78° C | 76% | 1013.4 hPa | 0 mm | - | 75 W/m² | - |
| 1777818249 | 16.67° C | 79% | 1013.3 hPa | 0 mm | - | 72 W/m² | - |
| 1777817945 | 16.11° C | 80% | 1013.1 hPa | 0 mm | - | 69 W/m² | - |
| 1777817643 | 16.11° C | 81% | 1013.2 hPa | 0 mm | - | 64 W/m² | - |
| 1777817339 | 15° C | 85% | 1013.2 hPa | 0 mm | - | 55 W/m² | - |
| 1777817036 | 13.89° C | 92% | 1013 hPa | 0 mm | - | 48 W/m² | - |
| 1777816732 | 13.33° C | 95% | 1013.2 hPa | 0 mm | - | 42 W/m² | - |
| 1777816430 | 12.78° C | 98% | 1013.2 hPa | 0 mm | - | 37 W/m² | - |
| 1777816128 | 12.22° C | 99% | 1013 hPa | 0 mm | - | 33 W/m² | - |
| 1777815825 | 11.67° C | 99% | 1013.1 hPa | 0 mm | - | 29 W/m² | - |
* Rain latest hour (hover to see other rain measurements)
** Current wind speed in m/s (hover to see current wind gust speed)